createdAt,value
2023-04-15T00:01:20.808Z,1.85
2023-04-15T00:03:48.192Z,1.90
2023-04-15T00:06:15.028Z,1.50
2023-04-15T00:08:42.321Z,1.70
2023-04-15T00:11:09.078Z,1.42
2023-04-15T00:13:36.148Z,1.50
2023-04-15T00:16:03.027Z,1.40
2023-04-15T00:18:30.387Z,1.60
2023-04-15T00:20:57.202Z,1.40
2023-04-15T00:23:24.078Z,1.50
2023-04-15T00:25:51.118Z,1.50
2023-04-15T00:28:18.464Z,1.80
2023-04-15T00:30:45.816Z,1.45
2023-04-15T00:33:13.475Z,2.20
2023-04-15T00:35:40.643Z,1.67
2023-04-15T00:38:10.690Z,1.85
2023-04-15T00:40:37.969Z,2.15
2023-04-15T00:43:05.586Z,1.65
2023-04-15T00:45:33.366Z,1.80
2023-04-15T00:48:00.437Z,1.58
2023-04-15T00:50:27.470Z,1.83
2023-04-15T00:52:54.176Z,1.40
2023-04-15T00:55:20.953Z,1.58
2023-04-15T00:57:48.330Z,1.50
2023-04-15T01:00:15.299Z,2.08
2023-04-15T01:02:42.141Z,1.83
2023-04-15T01:05:09.423Z,1.80
2023-04-15T01:07:36.164Z,1.92
2023-04-15T01:10:04.469Z,1.55
2023-04-15T01:12:33.200Z,2.00
2023-04-15T01:15:01.133Z,2.13
2023-04-15T01:17:28.194Z,2.47
2023-04-15T01:19:58.217Z,1.83
2023-04-15T01:22:26.748Z,2.00
2023-04-15T01:25:18.125Z,2.05
2023-04-15T01:27:45.337Z,2.20
2023-04-15T01:30:12.091Z,2.35
2023-04-15T01:32:39.151Z,2.65
2023-04-15T01:35:06.404Z,2.40
2023-04-15T01:37:33.640Z,2.58
2023-04-15T01:40:00.588Z,2.80
2023-04-15T01:42:27.861Z,2.53
2023-04-15T01:44:54.826Z,2.88
2023-04-15T01:47:21.890Z,3.03
2023-04-15T01:49:48.737Z,2.63
2023-04-15T01:52:15.703Z,3.33
2023-04-15T01:54:42.529Z,3.10
2023-04-15T01:57:09.766Z,3.20
2023-04-15T01:59:37.143Z,3.30
2023-04-15T02:02:04.382Z,3.15
2023-04-15T02:04:31.690Z,3.20
2023-04-15T02:06:58.465Z,2.85
2023-04-15T02:09:25.523Z,3.08
2023-04-15T02:11:54.238Z,2.97
2023-04-15T02:14:21.184Z,3.40
2023-04-15T02:16:48.277Z,3.08
2023-04-15T02:19:15.432Z,3.75
2023-04-15T02:21:42.324Z,3.72
2023-04-15T02:24:09.169Z,3.85
2023-04-15T02:26:36.231Z,3.70
2023-04-15T02:29:03.401Z,3.55
2023-04-15T02:31:30.400Z,3.47
2023-04-15T02:33:57.202Z,3.58
2023-04-15T02:36:24.069Z,4.03
2023-04-15T02:38:50.923Z,4.03
2023-04-15T02:41:17.778Z,4.05
2023-04-15T02:43:44.531Z,4.20
2023-04-15T02:46:14.996Z,3.88
2023-04-15T02:48:41.965Z,4.05
2023-04-15T02:51:16.838Z,4.22
2023-04-15T02:53:43.599Z,4.13
2023-04-15T02:56:11.298Z,5.07
2023-04-15T02:58:38.454Z,4.85
2023-04-15T03:01:05.433Z,4.78
2023-04-15T03:03:32.507Z,4.85
2023-04-15T03:05:59.289Z,4.70
2023-04-15T03:08:26.578Z,4.72
2023-04-15T03:10:54.312Z,4.88
2023-04-15T03:13:21.709Z,5.05
2023-04-15T03:15:48.650Z,5.22
2023-04-15T03:18:15.518Z,4.95
2023-04-15T03:20:42.454Z,5.22
2023-04-15T03:23:09.305Z,4.72
2023-04-15T03:25:37.421Z,5.38
2023-04-15T03:28:04.230Z,5.07
2023-04-15T03:30:31.049Z,5.75
2023-04-15T03:32:57.746Z,4.50
2023-04-15T03:35:24.563Z,5.20
2023-04-15T03:37:51.680Z,4.95
2023-04-15T03:40:18.401Z,5.13
2023-04-15T03:42:45.325Z,5.10
2023-04-15T03:45:12.083Z,4.82
2023-04-15T03:47:38.805Z,4.70
2023-04-15T03:50:06.372Z,5.40
2023-04-15T03:52:33.014Z,5.35
2023-04-15T03:54:59.777Z,4.97
2023-04-15T03:57:26.610Z,5.65
2023-04-15T03:59:53.474Z,5.70
2023-04-15T04:02:20.276Z,5.72
2023-04-15T04:04:47.209Z,5.47
2023-04-15T04:07:18.191Z,5.60
2023-04-15T04:09:47.037Z,5.90
2023-04-15T04:12:14.215Z,5.60
2023-04-15T04:14:41.102Z,5.63
2023-04-15T04:17:08.431Z,5.38
2023-04-15T04:19:35.403Z,5.53
2023-04-15T04:22:02.204Z,5.72
2023-04-15T04:24:28.980Z,5.90
2023-04-15T04:26:57.288Z,6.13
2023-04-15T04:29:24.122Z,5.38
2023-04-15T04:31:50.981Z,5.97
2023-04-15T04:34:18.037Z,5.72
2023-04-15T04:36:44.703Z,5.80
2023-04-15T04:39:11.383Z,6.30
2023-04-15T04:41:38.075Z,5.97
2023-04-15T04:44:04.873Z,6.53
2023-04-15T04:46:31.575Z,6.68
2023-04-15T04:48:58.312Z,7.22
2023-04-15T04:51:26.204Z,6.28
2023-04-15T04:53:53.068Z,6.30
2023-04-15T04:56:19.837Z,6.25
2023-04-15T04:58:46.727Z,6.50
2023-04-15T05:01:13.636Z,6.80
2023-04-15T05:03:40.557Z,6.20
2023-04-15T05:06:08.869Z,6.07
2023-04-15T05:08:36.702Z,5.80
2023-04-15T05:11:04.271Z,5.85
2023-04-15T05:13:30.979Z,5.95
2023-04-15T05:15:57.772Z,6.10
2023-04-15T05:18:24.801Z,5.75
2023-04-15T05:20:51.605Z,5.93
2023-04-15T05:23:18.465Z,5.45
2023-04-15T05:25:45.249Z,5.75
2023-04-15T05:28:12.370Z,5.63
2023-04-15T05:30:39.377Z,5.15
2023-04-15T05:33:06.305Z,5.68
2023-04-15T05:35:33.037Z,6.85
2023-04-15T05:37:59.784Z,5.15
2023-04-15T05:40:26.713Z,5.47
2023-04-15T05:42:53.592Z,5.07
2023-04-15T05:45:20.307Z,5.00
2023-04-15T05:47:47.105Z,5.15
2023-04-15T05:50:13.868Z,5.05
2023-04-15T05:52:40.558Z,4.53
2023-04-15T05:55:07.572Z,4.95
2023-04-15T05:57:34.358Z,4.82
2023-04-15T06:00:01.469Z,5.00
2023-04-15T06:02:28.599Z,4.68
2023-04-15T06:04:55.436Z,4.68
2023-04-15T06:07:22.168Z,4.53
2023-04-15T06:09:49.497Z,4.60
2023-04-15T06:12:17.096Z,4.60
2023-04-15T06:14:43.804Z,4.28
2023-04-15T06:17:10.593Z,4.50
2023-04-15T06:19:37.410Z,3.22
2023-04-15T06:22:04.207Z,3.20
2023-04-15T06:24:31.588Z,3.35
2023-04-15T06:26:58.268Z,3.60
2023-04-15T06:29:24.993Z,3.38
2023-04-15T06:31:51.729Z,3.15
2023-04-15T06:34:18.536Z,3.30
2023-04-15T06:36:45.724Z,3.35
2023-04-15T06:39:12.599Z,4.05
2023-04-15T06:41:39.448Z,2.97
2023-04-15T06:44:06.397Z,3.22
2023-04-15T06:46:33.235Z,3.67
2023-04-15T06:49:00.123Z,3.65
2023-04-15T06:51:28.208Z,4.00
2023-04-15T06:53:55.358Z,3.85
2023-04-15T06:56:22.086Z,3.88
2023-04-15T06:58:49.048Z,4.13
2023-04-15T07:01:15.999Z,4.15
2023-04-15T07:03:42.880Z,4.47
2023-04-15T07:06:10.123Z,4.32
2023-04-15T07:08:37.083Z,4.00
2023-04-15T07:11:03.849Z,6.07
2023-04-15T07:13:32.363Z,6.13
2023-04-15T07:15:59.197Z,3.90
2023-04-15T07:18:26.121Z,3.60
2023-04-15T07:20:52.869Z,4.40
2023-04-15T07:23:19.840Z,3.88
2023-04-15T07:25:47.352Z,3.78
2023-04-15T07:28:14.008Z,4.70
2023-04-15T07:30:40.886Z,3.92
2023-04-15T07:33:07.828Z,4.45
2023-04-15T07:35:34.525Z,4.18
2023-04-15T07:38:01.684Z,4.40
2023-04-15T07:40:29.045Z,4.22
2023-04-15T07:42:58.723Z,4.60
2023-04-15T07:45:25.563Z,4.22
2023-04-15T07:47:52.386Z,4.50
2023-04-15T07:50:19.794Z,3.97
2023-04-15T07:52:46.600Z,4.55
2023-04-15T07:55:13.420Z,4.40
2023-04-15T07:57:40.112Z,5.05
2023-04-15T08:00:07.790Z,4.68
2023-04-15T08:02:36.306Z,4.30
2023-04-15T08:05:04.503Z,4.10
2023-04-15T08:07:31.666Z,5.03
2023-04-15T08:09:58.452Z,4.22
2023-04-15T08:12:25.846Z,4.68
2023-04-15T08:14:52.582Z,4.47
2023-04-15T08:17:19.497Z,4.68
2023-04-15T08:19:46.609Z,4.40
2023-04-15T08:22:17.319Z,4.65
2023-04-15T08:24:45.719Z,4.78
2023-04-15T08:27:12.757Z,4.63
2023-04-15T08:29:40.709Z,4.45
2023-04-15T08:32:07.857Z,4.28
2023-04-15T08:34:35.041Z,4.95
2023-04-15T08:37:01.921Z,4.20
2023-04-15T08:39:28.650Z,4.22
2023-04-15T08:42:03.529Z,4.10
2023-04-15T08:44:33.570Z,4.75
2023-04-15T08:47:04.396Z,4.30
2023-04-15T08:49:32.439Z,4.40
2023-04-15T08:52:00.321Z,3.78
2023-04-15T08:54:28.190Z,3.65
2023-04-15T08:56:55.256Z,4.07
2023-04-15T08:59:22.217Z,4.13
2023-04-15T09:01:53.357Z,4.18
2023-04-15T09:04:20.640Z,4.65
2023-04-15T09:06:47.480Z,5.97
2023-04-15T09:09:14.624Z,3.90
2023-04-15T09:11:42.447Z,4.07
2023-04-15T09:14:09.209Z,3.88
2023-04-15T09:16:58.846Z,3.80
2023-04-15T09:19:26.274Z,3.70
2023-04-15T09:21:58.807Z,4.07
2023-04-15T09:24:34.021Z,4.15
2023-04-15T09:27:00.781Z,3.57
2023-04-15T09:29:27.743Z,3.65
2023-04-15T09:31:54.776Z,3.95
2023-04-15T09:34:21.706Z,3.38
2023-04-15T09:36:50.961Z,3.55
2023-04-15T09:39:17.957Z,3.20
2023-04-15T09:41:45.176Z,3.47
2023-04-15T09:44:26.566Z,3.30
2023-04-15T09:46:53.504Z,3.30
2023-04-15T09:49:20.893Z,3.90
2023-04-15T09:52:01.451Z,3.53
2023-04-15T09:54:38.530Z,3.40
2023-04-15T09:57:07.283Z,3.17
2023-04-15T09:59:34.427Z,2.80
2023-04-15T10:02:02.456Z,3.15
2023-04-15T10:04:30.083Z,3.08
2023-04-15T10:06:57.609Z,3.50
2023-04-15T10:09:24.360Z,2.92
2023-04-15T10:11:51.806Z,3.25
2023-04-15T10:14:19.216Z,3.65
2023-04-15T10:16:49.160Z,3.42
2023-04-15T10:19:18.971Z,3.33
2023-04-15T10:21:46.626Z,3.00
2023-04-15T10:24:13.568Z,2.90
2023-04-15T10:26:41.296Z,2.92
2023-04-15T10:29:09.530Z,3.25
2023-04-15T10:31:38.426Z,3.22
2023-04-15T10:34:06.692Z,3.17
2023-04-15T10:36:33.950Z,3.55
2023-04-15T10:39:01.401Z,2.80
2023-04-15T10:41:34.657Z,3.53
2023-04-15T10:44:05.644Z,3.28
2023-04-15T10:46:45.842Z,3.38
2023-04-15T10:49:13.734Z,3.60
2023-04-15T10:51:46.376Z,3.17
2023-04-15T10:54:25.297Z,3.15
2023-04-15T10:57:08.067Z,3.35
2023-04-15T11:00:00.663Z,3.13
2023-04-15T11:02:42.124Z,3.50
2023-04-15T11:05:10.551Z,3.25
2023-04-15T11:07:55.522Z,3.90
2023-04-15T11:10:31.491Z,2.73
2023-04-15T11:13:03.104Z,3.40
2023-04-15T11:15:34.589Z,3.55
2023-04-15T11:18:21.086Z,3.22
2023-04-15T11:20:54.911Z,3.40
2023-04-15T11:23:29.144Z,3.20
2023-04-15T11:25:57.946Z,3.05
2023-04-15T11:28:29.797Z,3.28
2023-04-15T11:30:57.606Z,3.60
2023-04-15T11:33:25.903Z,3.08
2023-04-15T11:35:54.746Z,3.10
2023-04-15T11:38:22.357Z,3.10
2023-04-15T11:40:50.952Z,2.83
2023-04-15T11:43:22.770Z,2.85
2023-04-15T11:45:49.532Z,3.13
2023-04-15T11:48:16.269Z,2.90
2023-04-15T11:50:43.069Z,3.33
2023-04-15T11:53:10.938Z,2.92
2023-04-15T11:55:48.484Z,2.70
2023-04-15T11:58:23.633Z,3.33
2023-04-15T12:00:57.132Z,2.28
2023-04-15T12:03:32.116Z,2.97
2023-04-15T12:06:14.447Z,2.88
2023-04-15T12:08:59.371Z,2.72
2023-04-15T12:11:29.673Z,3.17
2023-04-15T12:14:04.180Z,2.58
2023-04-15T12:16:31.752Z,2.60
2023-04-15T12:19:00.572Z,2.78
2023-04-15T12:21:33.120Z,2.70
2023-04-15T12:24:02.998Z,2.40
2023-04-15T12:26:34.408Z,2.90
2023-04-15T12:29:02.879Z,2.42
2023-04-15T12:31:30.465Z,2.40
2023-04-15T12:34:01.318Z,2.35
2023-04-15T12:36:30.264Z,2.90
2023-04-15T12:38:57.063Z,2.92
2023-04-15T12:41:24.465Z,2.10
2023-04-15T12:43:51.511Z,2.42
2023-04-15T12:46:18.780Z,2.05
2023-04-15T12:48:45.878Z,2.55
2023-04-15T12:51:12.547Z,2.28
2023-04-15T12:53:39.207Z,2.35
2023-04-15T12:56:06.518Z,2.08
2023-04-15T12:58:33.504Z,1.80
2023-04-15T13:01:00.618Z,2.00
2023-04-15T13:03:27.575Z,2.22
2023-04-15T13:05:54.468Z,2.20
2023-04-15T13:08:21.596Z,1.80
2023-04-15T13:10:48.640Z,2.05
2023-04-15T13:13:15.809Z,1.98
2023-04-15T13:15:45.689Z,1.52
2023-04-15T13:18:12.553Z,1.92
2023-04-15T13:20:39.379Z,1.70
2023-04-15T13:23:06.280Z,2.00
2023-04-15T13:25:33.130Z,2.40
2023-04-15T13:28:01.188Z,3.08
2023-04-15T13:30:28.285Z,2.28
2023-04-15T13:32:55.453Z,2.35
2023-04-15T13:35:22.276Z,2.00
2023-04-15T13:37:48.955Z,2.03
2023-04-15T13:40:15.707Z,2.30
2023-04-15T13:42:42.947Z,1.80
2023-04-15T13:45:10.160Z,2.40
2023-04-15T13:47:37.215Z,2.25
2023-04-15T13:50:04.508Z,2.42
2023-04-15T13:52:31.194Z,2.03
2023-04-15T13:55:08.772Z,1.88
2023-04-15T13:57:44.840Z,2.08
2023-04-15T14:00:12.460Z,2.05
2023-04-15T14:02:41.307Z,1.90
2023-04-15T14:05:08.793Z,2.50
2023-04-15T14:07:35.924Z,2.40
2023-04-15T14:10:03.260Z,2.00
2023-04-15T14:12:30.119Z,2.03
2023-04-15T14:14:56.989Z,2.38
2023-04-15T14:17:23.872Z,2.10
2023-04-15T14:19:50.600Z,2.22
2023-04-15T14:22:18.896Z,2.70
2023-04-15T14:24:45.820Z,2.85
2023-04-15T14:27:12.620Z,3.50
2023-04-15T14:29:39.470Z,3.80
2023-04-15T14:32:11.930Z,4.00
2023-04-15T14:34:39.596Z,2.97
2023-04-15T14:37:06.429Z,3.35
2023-04-15T14:39:33.090Z,3.33
2023-04-15T14:41:59.870Z,3.22
2023-04-15T14:44:26.626Z,3.20
2023-04-15T14:46:53.725Z,3.00
2023-04-15T14:49:20.836Z,3.47
2023-04-15T14:51:47.604Z,3.05
2023-04-15T14:54:14.343Z,3.70
2023-04-15T14:56:41.144Z,3.45
2023-04-15T14:59:07.907Z,2.88
2023-04-15T15:01:34.832Z,3.40
2023-04-15T15:04:01.662Z,3.08
2023-04-15T15:06:28.476Z,2.97
2023-04-15T15:08:55.300Z,3.00
2023-04-15T15:11:22.007Z,2.72
2023-04-15T15:13:49.051Z,2.97
2023-04-15T15:16:15.781Z,3.25
2023-04-15T15:18:42.649Z,2.55
2023-04-15T15:21:09.392Z,3.08
2023-04-15T15:23:36.179Z,2.92
2023-04-15T15:26:02.977Z,2.47
2023-04-15T15:28:29.932Z,2.72
2023-04-15T15:30:56.617Z,3.15
2023-04-15T15:33:23.506Z,3.03
2023-04-15T15:35:51.199Z,3.17
2023-04-15T15:38:17.950Z,2.80
2023-04-15T15:40:44.805Z,3.00
2023-04-15T15:43:11.655Z,3.30
2023-04-15T15:45:38.474Z,3.47
2023-04-15T15:48:05.738Z,2.80
2023-04-15T15:50:32.630Z,2.90
2023-04-15T15:52:59.329Z,2.80
2023-04-15T15:55:27.131Z,3.13
2023-04-15T15:57:54.357Z,2.72
2023-04-15T16:00:21.876Z,2.83
2023-04-15T16:03:06.147Z,2.28
2023-04-15T16:05:34.524Z,2.63
2023-04-15T16:08:01.851Z,3.70
2023-04-15T16:10:28.924Z,3.20
2023-04-15T16:12:56.033Z,2.53
2023-04-15T16:15:26.113Z,3.03
2023-04-15T16:17:52.905Z,3.13
2023-04-15T16:20:19.913Z,3.17
2023-04-15T16:22:46.607Z,2.90
2023-04-15T16:25:13.418Z,3.10
2023-04-15T16:27:57.122Z,3.15
2023-04-15T16:32:53.068Z,3.10
2023-04-15T16:35:19.992Z,3.25
2023-04-15T16:37:46.688Z,3.10
2023-04-15T16:40:13.856Z,2.92
2023-04-15T16:42:43.840Z,3.80
2023-04-15T16:45:11.055Z,3.38
2023-04-15T16:47:37.965Z,3.75
2023-04-15T16:50:05.034Z,3.97
2023-04-15T16:52:31.708Z,3.85
2023-04-15T16:54:58.556Z,3.28
2023-04-15T16:57:32.686Z,3.40
2023-04-15T17:00:15.218Z,3.33
2023-04-15T17:02:42.639Z,3.75
2023-04-15T17:05:09.816Z,3.38
2023-04-15T17:07:36.655Z,3.70
2023-04-15T17:10:03.729Z,3.50
2023-04-15T17:12:30.601Z,3.50
2023-04-15T17:14:57.347Z,2.80
2023-04-15T17:17:24.053Z,4.00
2023-04-15T17:19:50.839Z,4.53
2023-04-15T17:22:17.849Z,4.35
2023-04-15T17:24:44.580Z,4.85
2023-04-15T17:27:11.458Z,4.90
2023-04-15T17:29:38.188Z,5.97
2023-04-15T17:32:05.399Z,5.90
2023-04-15T17:34:50.696Z,5.97
2023-04-15T17:39:45.416Z,6.72
2023-04-15T17:42:12.869Z,6.93
2023-04-15T17:44:39.834Z,6.68
2023-04-15T17:47:06.836Z,6.43
2023-04-15T17:49:34.271Z,5.47
2023-04-15T17:52:01.320Z,4.28
2023-04-15T17:54:28.204Z,3.78
2023-04-15T17:56:56.755Z,3.60
2023-04-15T17:59:23.773Z,4.32
2023-04-15T18:01:50.711Z,3.60
2023-04-15T18:04:17.554Z,3.55
2023-04-15T18:06:44.395Z,3.50
2023-04-15T18:09:11.477Z,3.60
2023-04-15T18:11:40.074Z,3.22
2023-04-15T18:14:07.222Z,3.03
2023-04-15T18:16:34.346Z,3.30
2023-04-15T18:19:01.715Z,3.25
2023-04-15T18:21:28.486Z,3.00
2023-04-15T18:23:55.336Z,3.65
2023-04-15T18:26:22.162Z,2.83
2023-04-15T18:28:48.845Z,3.50
2023-04-15T18:31:15.601Z,2.80
2023-04-15T18:33:45.070Z,2.70
2023-04-15T18:36:11.978Z,2.47
2023-04-15T18:38:38.619Z,2.58
2023-04-15T18:41:05.597Z,2.55
2023-04-15T18:43:32.529Z,2.78
2023-04-15T18:46:00.065Z,2.42
2023-04-15T18:48:27.051Z,2.35
2023-04-15T18:50:54.269Z,2.80
2023-04-15T18:53:21.619Z,3.10
2023-04-15T18:55:48.535Z,3.08
2023-04-15T18:58:15.801Z,2.90
2023-04-15T19:00:43.788Z,3.70
2023-04-15T19:03:11.532Z,3.63
2023-04-15T19:05:38.695Z,3.85
2023-04-15T19:08:05.822Z,3.75
2023-04-15T19:10:34.532Z,4.18
2023-04-15T19:13:01.197Z,4.60
2023-04-15T19:15:28.553Z,4.03
2023-04-15T19:17:55.575Z,3.95
2023-04-15T19:20:22.450Z,4.43
2023-04-15T19:22:49.197Z,4.50
2023-04-15T19:25:15.970Z,4.20
2023-04-15T19:27:42.645Z,4.65
2023-04-15T19:30:09.545Z,4.25
2023-04-15T19:32:36.424Z,4.60
2023-04-15T19:35:03.569Z,4.10
2023-04-15T19:37:30.366Z,3.90
2023-04-15T19:39:57.164Z,4.28
2023-04-15T19:42:24.093Z,4.15
2023-04-15T19:44:50.880Z,3.78
2023-04-15T19:47:17.765Z,3.95
2023-04-15T19:49:44.649Z,4.20
2023-04-15T19:52:11.483Z,4.40
2023-04-15T19:54:38.262Z,3.97
2023-04-15T19:57:05.519Z,3.78
2023-04-15T19:59:32.184Z,3.88
2023-04-15T20:01:58.966Z,3.47
2023-04-15T20:04:26.113Z,3.80
2023-04-15T20:06:53.009Z,3.40
2023-04-15T20:09:19.703Z,3.90
2023-04-15T20:12:46.284Z,3.22
2023-04-15T20:14:33.319Z,3.40
2023-04-15T20:17:00.305Z,3.92
2023-04-15T20:19:27.050Z,3.40
2023-04-15T20:21:54.324Z,4.00
2023-04-15T20:24:21.753Z,3.38
2023-04-15T20:26:48.485Z,3.83
2023-04-15T20:29:15.312Z,3.60
2023-04-15T20:31:42.329Z,3.88
2023-04-15T20:34:11.870Z,3.30
2023-04-15T20:36:38.832Z,3.60
2023-04-15T20:39:05.750Z,3.88
2023-04-15T20:41:32.676Z,3.47
2023-04-15T20:43:59.429Z,3.72
2023-04-15T20:46:27.786Z,4.20
2023-04-15T20:48:55.539Z,4.07
2023-04-15T20:51:22.260Z,4.13
2023-04-15T20:53:49.653Z,4.05
2023-04-15T20:56:16.349Z,4.90
2023-04-15T20:58:43.119Z,4.22
2023-04-15T21:01:09.935Z,4.78
2023-04-15T21:03:36.989Z,4.30
2023-04-15T21:06:04.062Z,5.05
2023-04-15T21:08:31.658Z,4.35
2023-04-15T21:10:58.540Z,4.30
2023-04-15T21:13:25.275Z,4.57
2023-04-15T21:15:54.175Z,4.53
2023-04-15T21:18:21.880Z,4.43
2023-04-15T21:20:59.434Z,4.13
2023-04-15T21:23:28.774Z,3.83
2023-04-15T21:25:56.156Z,4.10
2023-04-15T21:28:23.432Z,4.18
2023-04-15T21:30:50.684Z,4.30
2023-04-15T21:33:20.321Z,3.90
2023-04-15T21:35:47.083Z,4.43
2023-04-15T21:38:14.036Z,4.18
2023-04-15T21:40:41.051Z,4.55
2023-04-15T21:43:08.697Z,4.03
2023-04-15T21:45:36.364Z,3.65
2023-04-15T21:48:08.009Z,4.20
2023-04-15T21:50:38.607Z,4.18
2023-04-15T21:53:08.325Z,4.20
2023-04-15T21:55:35.791Z,3.80
2023-04-15T21:58:02.584Z,3.97
2023-04-15T22:00:29.413Z,3.90
2023-04-15T22:02:56.207Z,3.83
2023-04-15T22:05:23.233Z,3.72
2023-04-15T22:07:49.957Z,3.70
2023-04-15T22:10:16.743Z,3.30
2023-04-15T22:12:43.580Z,3.72
2023-04-15T22:15:10.359Z,4.38
2023-04-15T22:17:37.188Z,4.00
2023-04-15T22:20:04.158Z,3.88
2023-04-15T22:22:43.576Z,4.07
2023-04-15T22:25:11.776Z,4.05
2023-04-15T22:27:38.600Z,3.55
2023-04-15T22:30:06.013Z,4.28
2023-04-15T22:32:33.098Z,4.13
2023-04-15T22:35:00.100Z,3.80
2023-04-15T22:37:30.462Z,3.80
2023-04-15T22:39:57.892Z,3.92
2023-04-15T22:42:24.798Z,3.97
2023-04-15T22:44:51.824Z,4.55
2023-04-15T22:47:19.330Z,3.92
2023-04-15T22:49:46.060Z,4.18
2023-04-15T22:52:23.386Z,4.22
2023-04-15T22:54:54.118Z,3.50
2023-04-15T22:57:20.777Z,4.38
2023-04-15T22:59:47.398Z,4.05
2023-04-15T23:02:14.352Z,3.38
2023-04-15T23:04:41.439Z,4.07
2023-04-15T23:07:08.250Z,3.40
2023-04-15T23:09:34.923Z,3.70
2023-04-15T23:12:02.831Z,3.63
2023-04-15T23:14:30.056Z,4.07
2023-04-15T23:16:58.105Z,3.50
2023-04-15T23:19:25.220Z,3.20
2023-04-15T23:21:52.654Z,3.40
2023-04-15T23:24:19.400Z,3.50
2023-04-15T23:26:46.173Z,3.05
2023-04-15T23:29:12.946Z,3.78
2023-04-15T23:31:41.576Z,3.13
2023-04-15T23:34:08.447Z,3.08
2023-04-15T23:36:35.201Z,3.03
2023-04-15T23:39:02.153Z,2.95
2023-04-15T23:41:28.981Z,2.63
2023-04-15T23:43:55.743Z,3.13
2023-04-15T23:46:22.529Z,2.88
2023-04-15T23:48:49.637Z,2.80
2023-04-15T23:51:16.758Z,2.67
2023-04-15T23:53:43.766Z,2.85
2023-04-15T23:56:11.108Z,2.90
2023-04-15T23:58:37.928Z,2.65
